Time;durP1;ratioP1;P1;durP2;ratioP2;P2;SDS_P1;SDS_P2;PMS_P1;PMS_P2;Temp;Humidity;BMP_temperature;BMP_pressure;BME280_temperature;BME280_humidity;BME280_pressure;Samples;Min_cycle;Max_cycle;Signal;HPM_P1;HPM_P2
2023/06/02 00:00:39;;;;;;;4.15;2.30;;;;;;;;;;5074305;28;20110;-63
2023/06/02 00:03:10;;;;;;;5.00;2.13;;;;;;;;;;5074383;28;20159;-63
2023/06/02 00:05:39;;;;;;;3.22;2.38;;;;;;;;;;5073579;28;20509;-64
2023/06/02 00:08:09;;;;;;;4.13;1.90;;;;;;;;;;5073839;28;20052;-64
2023/06/02 00:10:38;;;;;;;3.90;2.17;;;;;;;;;;5073578;28;20117;-64
2023/06/02 00:13:08;;;;;;;7.40;2.35;;;;;;;;;;5072750;28;20098;-65
2023/06/02 00:15:37;;;;;;;6.90;2.53;;;;;;;;;;5073558;28;20063;-64
2023/06/02 00:18:06;;;;;;;3.90;2.28;;;;;;;;;;5073751;28;20056;-64
2023/06/02 00:20:34;;;;;;;4.95;1.98;;;;;;;;;;5073546;28;20120;-64
2023/06/02 00:23:03;;;;;;;3.85;2.08;;;;;;;;;;5060666;28;20123;-64
2023/06/02 00:25:34;;;;;;;3.25;1.80;;;;;;;;;;5072673;28;20041;-64
2023/06/02 00:28:02;;;;;;;3.92;2.17;;;;;;;;;;5073696;28;20076;-63
2023/06/02 00:30:31;;;;;;;8.30;2.20;;;;;;;;;;5073371;28;20049;-63
2023/06/02 00:33:00;;;;;;;4.30;2.17;;;;;;;;;;5073213;28;20049;-63
2023/06/02 00:35:28;;;;;;;5.38;2.40;;;;;;;;;;5072423;28;20049;-63
2023/06/02 00:38:02;;;;;;;5.80;2.70;;;;;;;;;;5072869;28;20052;-64
2023/06/02 00:40:32;;;;;;;3.38;2.38;;;;;;;;;;5072618;28;20456;-64
2023/06/02 00:43:01;;;;;;;5.00;2.28;;;;;;;;;;5073538;28;20118;-63
2023/06/02 00:45:30;;;;;;;5.18;1.80;;;;;;;;;;5072214;28;20090;-64
2023/06/02 00:48:00;;;;;;;5.60;2.20;;;;;;;;;;5071748;28;20058;-64
2023/06/02 00:50:29;;;;;;;6.78;2.80;;;;;;;;;;5072972;28;20045;-63
2023/06/02 00:52:58;;;;;;;3.72;2.40;;;;;;;;;;5073265;28;20413;-63
2023/06/02 00:55:29;;;;;;;4.60;1.85;;;;;;;;;;5072799;28;20131;-64
2023/06/02 00:58:03;;;;;;;4.65;2.03;;;;;;;;;;5072443;28;20052;-63
2023/06/02 01:00:36;;;;;;;4.22;2.20;;;;;;;;;;5071793;28;20076;-64
2023/06/02 01:03:07;;;;;;;3.10;1.93;;;;;;;;;;5068244;22;20080;-60
2023/06/02 01:05:37;;;;;;;3.25;1.88;;;;;;;;;;5036109;28;20132;-61
2023/06/02 01:08:07;;;;;;;4.07;2.22;;;;;;;;;;5036249;28;20095;-63
2023/06/02 01:10:37;;;;;;;4.15;2.70;;;;;;;;;;5035088;28;20498;-63
2023/06/02 01:13:07;;;;;;;7.85;2.58;;;;;;;;;;5036002;28;20080;-62
2023/06/02 01:15:35;;;;;;;4.80;2.58;;;;;;;;;;5035415;28;20049;-61
2023/06/02 01:18:08;;;;;;;2.83;1.95;;;;;;;;;;5035570;28;20049;-64
2023/06/02 01:20:39;;;;;;;4.82;2.55;;;;;;;;;;5036335;28;20049;-63
2023/06/02 01:23:10;;;;;;;5.20;2.25;;;;;;;;;;5035948;28;20041;-62
2023/06/02 01:25:40;;;;;;;2.45;1.55;;;;;;;;;;5035180;28;20111;-63
2023/06/02 01:28:09;;;;;;;3.72;2.13;;;;;;;;;;5035720;28;20049;-61
2023/06/02 01:30:38;;;;;;;8.45;1.90;;;;;;;;;;5035637;28;20085;-61
2023/06/02 01:33:08;;;;;;;5.63;2.10;;;;;;;;;;5030287;28;20045;-63
2023/06/02 01:35:39;;;;;;;5.82;2.28;;;;;;;;;;5031608;28;20050;-62
2023/06/02 01:38:08;;;;;;;7.68;1.95;;;;;;;;;;5031789;28;20052;-62
2023/06/02 01:40:37;;;;;;;5.07;2.08;;;;;;;;;;5031836;28;20584;-61
2023/06/02 01:43:08;;;;;;;5.55;2.28;;;;;;;;;;5032477;28;20049;-61
2023/06/02 01:45:37;;;;;;;3.97;1.85;;;;;;;;;;5030788;28;20142;-62
2023/06/02 01:48:07;;;;;;;3.25;2.08;;;;;;;;;;5031937;28;20049;-62
2023/06/02 01:50:37;;;;;;;4.47;2.30;;;;;;;;;;5031542;28;20084;-62
2023/06/02 01:53:05;;;;;;;6.15;2.38;;;;;;;;;;5032222;28;20136;-62
2023/06/02 01:55:34;;;;;;;2.92;2.05;;;;;;;;;;5031245;28;20057;-65
2023/06/02 01:58:02;;;;;;;4.40;1.95;;;;;;;;;;5031542;28;20050;-62
2023/06/02 02:00:32;;;;;;;3.55;1.98;;;;;;;;;;5031136;28;20484;-62
2023/06/02 02:03:02;;;;;;;3.72;2.28;;;;;;;;;;5040282;28;20464;-61
2023/06/02 02:05:31;;;;;;;3.50;2.03;;;;;;;;;;5051000;28;20045;-62
2023/06/02 02:07:59;;;;;;;4.38;2.33;;;;;;;;;;5051405;28;20099;-62
2023/06/02 02:10:28;;;;;;;4.22;2.40;;;;;;;;;;5051395;28;20491;-63
2023/06/02 02:12:57;;;;;;;3.63;2.28;;;;;;;;;;5051307;28;20049;-62
2023/06/02 02:15:27;;;;;;;4.72;2.30;;;;;;;;;;5045628;28;20100;-62
2023/06/02 02:17:57;;;;;;;4.78;1.85;;;;;;;;;;5037008;28;20059;-61
2023/06/02 02:20:27;;;;;;;4.28;2.22;;;;;;;;;;5051661;28;20056;-61
2023/06/02 02:22:55;;;;;;;4.35;1.98;;;;;;;;;;5050723;28;20382;-62
2023/06/02 02:25:24;;;;;;;2.38;1.65;;;;;;;;;;5045876;28;20081;-62
2023/06/02 02:27:52;;;;;;;3.55;1.92;;;;;;;;;;5049767;28;20426;-61
2023/06/02 02:30:21;;;;;;;4.07;2.25;;;;;;;;;;5051164;28;20102;-62
2023/06/02 02:32:51;;;;;;;3.47;2.22;;;;;;;;;;5050820;28;20546;-62
2023/06/02 02:35:21;;;;;;;4.18;2.10;;;;;;;;;;5044198;28;20536;-63
2023/06/02 02:37:49;;;;;;;4.40;2.05;;;;;;;;;;5051088;28;20532;-61
2023/06/02 02:40:18;;;;;;;3.35;1.80;;;;;;;;;;5050270;28;20045;-62
2023/06/02 02:42:46;;;;;;;4.53;2.15;;;;;;;;;;5051139;28;20052;-61
2023/06/02 02:45:15;;;;;;;4.43;2.40;;;;;;;;;;5049829;28;20053;-62
2023/06/02 02:47:43;;;;;;;4.95;2.10;;;;;;;;;;5050931;28;20044;-63
2023/06/02 02:50:12;;;;;;;2.85;1.80;;;;;;;;;;5050130;28;20094;-62
2023/06/02 02:52:41;;;;;;;4.05;2.42;;;;;;;;;;5050845;28;20048;-61
2023/06/02 02:55:10;;;;;;;4.43;1.90;;;;;;;;;;5050357;28;20073;-61
2023/06/02 02:57:38;;;;;;;5.20;2.28;;;;;;;;;;5050707;28;20048;-62
2023/06/02 03:00:09;;;;;;;4.25;1.92;;;;;;;;;;5050035;28;20046;-62
2023/06/02 03:02:37;;;;;;;2.53;1.55;;;;;;;;;;5050027;28;20056;-62
2023/06/02 03:05:08;;;;;;;2.95;1.90;;;;;;;;;;5048036;28;20072;-63
2023/06/02 03:07:39;;;;;;;3.75;1.98;;;;;;;;;;5044304;28;20466;-61
2023/06/02 03:10:09;;;;;;;2.33;1.90;;;;;;;;;;5050442;28;20061;-61
2023/06/02 03:12:37;;;;;;;4.85;2.83;;;;;;;;;;5049570;28;20076;-61
2023/06/02 03:15:06;;;;;;;10.40;2.65;;;;;;;;;;5048268;28;20049;-62
2023/06/02 03:17:37;;;;;;;3.08;2.10;;;;;;;;;;5046008;28;20053;-62
2023/06/02 03:20:08;;;;;;;5.57;2.80;;;;;;;;;;5050515;28;20555;-61
2023/06/02 03:22:36;;;;;;;5.47;2.33;;;;;;;;;;5049869;28;20057;-64
2023/06/02 03:25:05;;;;;;;2.00;1.58;;;;;;;;;;5049742;28;20131;-62
2023/06/02 03:27:35;;;;;;;9.10;2.00;;;;;;;;;;5049947;28;20127;-64
2023/06/02 03:30:04;;;;;;;5.35;1.95;;;;;;;;;;5050412;28;20056;-61
2023/06/02 03:32:32;;;;;;;3.00;2.00;;;;;;;;;;5049825;28;20085;-61
2023/06/02 03:35:01;;;;;;;3.88;2.03;;;;;;;;;;5049615;28;20080;-61
2023/06/02 03:37:29;;;;;;;4.00;2.15;;;;;;;;;;5049847;28;20518;-62
2023/06/02 03:39:58;;;;;;;3.50;2.08;;;;;;;;;;5050094;28;20490;-63
2023/06/02 03:42:26;;;;;;;5.80;2.22;;;;;;;;;;5049889;28;20048;-61
2023/06/02 03:44:56;;;;;;;3.45;1.70;;;;;;;;;;5049400;28;20110;-63
2023/06/02 03:47:24;;;;;;;3.03;1.77;;;;;;;;;;5040225;28;20519;-61
2023/06/02 03:49:52;;;;;;;6.32;2.15;;;;;;;;;;5049761;28;20061;-63
2023/06/02 03:52:21;;;;;;;5.90;2.38;;;;;;;;;;5049657;28;20049;-63
2023/06/02 03:54:49;;;;;;;2.90;2.00;;;;;;;;;;5049019;28;20410;-62
2023/06/02 03:57:18;;;;;;;4.50;2.03;;;;;;;;;;5050126;28;20049;-61
2023/06/02 03:59:46;;;;;;;5.75;2.15;;;;;;;;;;5050023;28;20049;-61
2023/06/02 04:02:16;;;;;;;5.00;2.78;;;;;;;;;;5049740;28;20103;-62
2023/06/02 04:04:44;;;;;;;4.78;2.05;;;;;;;;;;5049027;28;20052;-64
2023/06/02 04:07:13;;;;;;;4.07;1.90;;;;;;;;;;5041235;28;20136;-61
2023/06/02 04:09:41;;;;;;;6.95;2.63;;;;;;;;;;5049883;28;20088;-62
2023/06/02 04:12:10;;;;;;;2.95;1.73;;;;;;;;;;5049886;28;20041;-61
2023/06/02 04:14:38;;;;;;;4.85;1.98;;;;;;;;;;5048940;28;20468;-62
2023/06/02 04:17:07;;;;;;;4.72;2.40;;;;;;;;;;5043712;28;20053;-63
2023/06/02 04:19:37;;;;;;;3.63;2.55;;;;;;;;;;5048946;28;20049;-61
2023/06/02 04:22:05;;;;;;;8.85;2.17;;;;;;;;;;5050905;28;20080;-61
2023/06/02 04:24:34;;;;;;;4.68;2.28;;;;;;;;;;5051683;28;20051;-62
2023/06/02 04:27:02;;;;;;;3.97;2.15;;;;;;;;;;5052903;28;20081;-63
2023/06/02 04:29:31;;;;;;;3.20;1.85;;;;;;;;;;5053227;28;20057;-61
2023/06/02 04:32:01;;;;;;;7.20;1.90;;;;;;;;;;5053110;28;20064;-63
2023/06/02 04:34:31;;;;;;;2.63;1.55;;;;;;;;;;5046846;28;20052;-62
2023/06/02 04:37:01;;;;;;;3.78;2.08;;;;;;;;;;5052534;28;20437;-61
2023/06/02 04:39:29;;;;;;;4.78;1.92;;;;;;;;;;5052808;28;20928;-62
2023/06/02 04:41:58;;;;;;;5.50;2.50;;;;;;;;;;5052600;28;20045;-61
2023/06/02 04:44:26;;;;;;;3.67;2.10;;;;;;;;;;5052685;28;20099;-61
2023/06/02 04:46:54;;;;;;;5.82;2.15;;;;;;;;;;5040316;28;20136;-61
2023/06/02 04:49:23;;;;;;;5.47;2.67;;;;;;;;;;5052892;28;20140;-61
2023/06/02 04:51:51;;;;;;;7.68;2.30;;;;;;;;;;5052815;28;20412;-62
2023/06/02 04:54:21;;;;;;;6.30;2.28;;;;;;;;;;5051881;28;20048;-63
2023/06/02 04:56:49;;;;;;;1.90;1.55;;;;;;;;;;5051837;28;20580;-64
2023/06/02 04:59:18;;;;;;;6.80;2.83;;;;;;;;;;5043640;28;20041;-63
2023/06/02 05:01:47;;;;;;;4.53;2.40;;;;;;;;;;5052708;28;20486;-61
2023/06/02 05:04:15;;;;;;;4.35;2.17;;;;;;;;;;5052546;28;20064;-63
2023/06/02 05:06:44;;;;;;;4.03;2.30;;;;;;;;;;5043695;28;20497;-61
2023/06/02 05:09:12;;;;;;;3.58;2.17;;;;;;;;;;5052423;28;20083;-61
2023/06/02 05:11:43;;;;;;;4.65;1.95;;;;;;;;;;5052328;28;20061;-62
2023/06/02 05:14:12;;;;;;;4.22;2.50;;;;;;;;;;5052530;28;20083;-62
2023/06/02 05:16:44;;;;;;;4.38;2.03;;;;;;;;;;5044409;28;20106;-62
2023/06/02 05:19:12;;;;;;;5.57;2.40;;;;;;;;;;5052283;28;20084;-62
2023/06/02 05:21:41;;;;;;;3.58;2.42;;;;;;;;;;5051817;28;20053;-62
2023/06/02 05:24:09;;;;;;;4.90;2.45;;;;;;;;;;5052292;28;20068;-62
2023/06/02 05:26:39;;;;;;;4.18;1.45;;;;;;;;;;5048323;28;20397;-62
2023/06/02 05:29:08;;;;;;;3.67;1.85;;;;;;;;;;5051757;28;20049;-65
2023/06/02 05:31:37;;;;;;;4.10;2.13;;;;;;;;;;5051863;28;20049;-63
2023/06/02 05:34:05;;;;;;;4.40;2.45;;;;;;;;;;5051300;28;20049;-62
2023/06/02 05:36:33;;;;;;;2.25;1.60;;;;;;;;;;5051407;28;20462;-62
2023/06/02 05:39:05;;;;;;;3.80;1.80;;;;;;;;;;5052097;28;20049;-61
2023/06/02 05:41:33;;;;;;;4.13;2.20;;;;;;;;;;5051795;28;20124;-61
2023/06/02 05:44:02;;;;;;;2.90;1.65;;;;;;;;;;5051867;28;20053;-64
2023/06/02 05:46:31;;;;;;;3.55;1.80;;;;;;;;;;5051158;28;20110;-64
2023/06/02 05:49:00;;;;;;;2.65;1.67;;;;;;;;;;5051707;28;20080;-62
2023/06/02 05:51:28;;;;;;;3.67;1.98;;;;;;;;;;5052000;28;20049;-62
2023/06/02 05:53:57;;;;;;;4.13;2.17;;;;;;;;;;5051751;28;20091;-61
2023/06/02 05:56:25;;;;;;;3.60;2.10;;;;;;;;;;5051201;28;20191;-62
2023/06/02 05:58:54;;;;;;;5.30;2.45;;;;;;;;;;5051435;28;20140;-62
2023/06/02 06:01:22;;;;;;;4.88;2.20;;;;;;;;;;5051082;28;20440;-61
2023/06/02 06:03:52;;;;;;;3.70;2.15;;;;;;;;;;5051413;28;20057;-62
2023/06/02 06:06:20;;;;;;;4.18;2.30;;;;;;;;;;5050689;28;20060;-63
2023/06/02 06:08:48;;;;;;;4.55;2.00;;;;;;;;;;5051111;28;20064;-64
2023/06/02 06:11:18;;;;;;;3.65;2.38;;;;;;;;;;5051101;28;20068;-64
2023/06/02 06:13:46;;;;;;;9.48;2.60;;;;;;;;;;5051823;28;20041;-61
2023/06/02 06:16:14;;;;;;;6.55;2.30;;;;;;;;;;5046633;28;20056;-61
2023/06/02 06:18:44;;;;;;;2.60;1.75;;;;;;;;;;5051132;28;20553;-62
2023/06/02 06:21:14;;;;;;;2.70;1.85;;;;;;;;;;5050368;28;20099;-62
2023/06/02 06:23:42;;;;;;;5.55;1.70;;;;;;;;;;5051166;28;20713;-61
2023/06/02 06:26:11;;;;;;;4.25;1.67;;;;;;;;;;5050347;28;20081;-63
2023/06/02 06:28:43;;;;;;;4.05;2.10;;;;;;;;;;5051093;28;20054;-61
2023/06/02 06:31:11;;;;;;;3.60;1.65;;;;;;;;;;5050781;28;20075;-64
2023/06/02 06:33:40;;;;;;;5.07;1.92;;;;;;;;;;5049950;28;20111;-61
2023/06/02 06:36:08;;;;;;;3.72;2.20;;;;;;;;;;5043418;28;20521;-62
2023/06/02 06:38:38;;;;;;;3.38;1.92;;;;;;;;;;5044974;28;20121;-60
2023/06/02 06:41:06;;;;;;;4.75;1.98;;;;;;;;;;5051125;28;20107;-61
2023/06/02 06:43:35;;;;;;;3.67;1.70;;;;;;;;;;5050390;28;20138;-61
2023/06/02 06:46:03;;;;;;;2.90;1.67;;;;;;;;;;5049463;28;20072;-62
2023/06/02 06:48:32;;;;;;;4.10;1.83;;;;;;;;;;5050256;28;20056;-61
2023/06/02 06:51:01;;;;;;;6.65;2.10;;;;;;;;;;5050767;28;20056;-63
2023/06/02 06:53:29;;;;;;;4.15;2.00;;;;;;;;;;5050533;28;20464;-63
2023/06/02 06:56:00;;;;;;;2.58;1.70;;;;;;;;;;5050006;28;20044;-62
2023/06/02 06:58:29;;;;;;;6.13;1.90;;;;;;;;;;5050201;28;20055;-63
2023/06/02 07:00:58;;;;;;;4.40;1.83;;;;;;;;;;5050337;28;20410;-62
2023/06/02 07:03:27;;;;;;;3.30;1.80;;;;;;;;;;5050113;28;20053;-62
2023/06/02 07:05:56;;;;;;;5.63;1.60;;;;;;;;;;5045021;28;20045;-61
2023/06/02 07:08:24;;;;;;;3.25;1.92;;;;;;;;;;5049913;28;20048;-62
2023/06/02 07:10:52;;;;;;;5.63;2.25;;;;;;;;;;5049913;28;20083;-62
2023/06/02 07:13:22;;;;;;;8.15;1.95;;;;;;;;;;5049921;28;20098;-62
2023/06/02 07:15:51;;;;;;;5.22;2.20;;;;;;;;;;5046402;28;20045;-62
2023/06/02 07:18:19;;;;;;;11.30;2.33;;;;;;;;;;5050334;28;20052;-61
2023/06/02 07:20:49;;;;;;;6.88;2.53;;;;;;;;;;5050119;28;20063;-62
2023/06/02 07:23:17;;;;;;;4.95;1.95;;;;;;;;;;5049830;28;20118;-63
2023/06/02 07:25:46;;;;;;;5.43;1.67;;;;;;;;;;5048381;28;20060;-64
2023/06/02 07:28:15;;;;;;;8.30;2.20;;;;;;;;;;5050103;28;20060;-62
2023/06/02 07:31:04;;;;;;;5.47;1.98;;;;;;;;;;5050395;28;20132;-62
2023/06/02 07:33:38;;;;;;;;;;;;;;;;;;5049743;28;20052;-62
2023/06/02 07:36:06;;;;;;;4.93;1.98;;;;;;;;;;5043625;28;19921;-62
2023/06/02 07:38:35;;;;;;;3.55;2.05;;;;;;;;;;5049248;28;20049;-61
2023/06/02 07:41:03;;;;;;;4.03;1.98;;;;;;;;;;5049816;28;20505;-61
2023/06/02 07:43:32;;;;;;;4.63;2.40;;;;;;;;;;5049595;28;20197;-63
2023/06/02 07:46:00;;;;;;;3.90;2.05;;;;;;;;;;5048602;28;20049;-63
2023/06/02 07:48:30;;;;;;;3.80;1.65;;;;;;;;;;5049636;28;20088;-64
2023/06/02 07:50:58;;;;;;;9.20;2.28;;;;;;;;;;5049751;28;20056;-61
2023/06/02 07:53:27;;;;;;;5.50;2.25;;;;;;;;;;5049455;28;20053;-61
2023/06/02 07:55:55;;;;;;;5.75;2.10;;;;;;;;;;5049391;28;20413;-61
2023/06/02 07:58:24;;;;;;;4.47;2.00;;;;;;;;;;5052895;28;20440;-63
2023/06/02 08:00:52;;;;;;;5.18;2.05;;;;;;;;;;5053680;28;20099;-62
2023/06/02 08:03:21;;;;;;;7.95;2.42;;;;;;;;;;5052870;28;20118;-61
2023/06/02 08:05:51;;;;;;;6.68;2.35;;;;;;;;;;5053416;28;20045;-61
2023/06/02 08:08:19;;;;;;;3.88;2.47;;;;;;;;;;5053776;28;20126;-62
2023/06/02 08:10:48;;;;;;;4.30;2.17;;;;;;;;;;5053476;28;20569;-62
2023/06/02 08:13:16;;;;;;;3.75;1.70;;;;;;;;;;5053225;28;20655;-62
2023/06/02 08:15:45;;;;;;;5.57;2.22;;;;;;;;;;5052958;28;20075;-61
2023/06/02 08:18:24;;;;;;;5.50;2.28;;;;;;;;;;5041301;28;20128;-64
2023/06/02 08:20:54;;;;;;;5.65;1.98;;;;;;;;;;5050839;28;20053;-62
2023/06/02 08:23:23;;;;;;;5.70;1.92;;;;;;;;;;5053324;28;20440;-63
2023/06/02 08:25:53;;;;;;;4.57;1.92;;;;;;;;;;5051246;28;20111;-61
2023/06/02 08:28:24;;;;;;;4.47;2.00;;;;;;;;;;5053558;28;20053;-62
2023/06/02 08:30:58;;;;;;;3.40;1.75;;;;;;;;;;5053271;28;20560;-63
2023/06/02 08:33:27;;;;;;;5.28;2.05;;;;;;;;;;5052918;28;20055;-63
2023/06/02 08:35:56;;;;;;;3.33;1.58;;;;;;;;;;5049442;28;20501;-63
2023/06/02 08:38:25;;;;;;;3.45;2.25;;;;;;;;;;5052790;28;20056;-63
2023/06/02 08:40:54;;;;;;;4.70;2.15;;;;;;;;;;5039771;28;20055;-63
2023/06/02 08:43:23;;;;;;;2.83;1.70;;;;;;;;;;5053214;28;20041;-61
2023/06/02 08:45:51;;;;;;;3.22;1.67;;;;;;;;;;5052411;28;20049;-62
2023/06/02 08:48:20;;;;;;;2.38;1.60;;;;;;;;;;5052647;28;20052;-62
2023/06/02 08:50:50;;;;;;;8.10;2.20;;;;;;;;;;5052893;28;20147;-62
2023/06/02 08:53:23;;;;;;;3.83;1.92;;;;;;;;;;5052838;28;20115;-62
2023/06/02 08:55:51;;;;;;;4.22;2.10;;;;;;;;;;5052387;28;20110;-63
2023/06/02 08:58:20;;;;;;;3.25;1.67;;;;;;;;;;5052472;28;20102;-64
2023/06/02 09:00:48;;;;;;;2.33;1.50;;;;;;;;;;5052637;28;20045;-63
2023/06/02 09:03:17;;;;;;;4.30;2.05;;;;;;;;;;5052126;28;20061;-62
2023/06/02 09:05:48;;;;;;;6.53;1.88;;;;;;;;;;5050308;28;20187;-62
2023/06/02 09:08:17;;;;;;;3.95;1.90;;;;;;;;;;5049447;28;20041;-63
2023/06/02 09:10:48;;;;;;;5.65;1.88;;;;;;;;;;5051454;28;20581;-63
2023/06/02 09:13:30;;;;;;;4.20;2.22;;;;;;;;;;5052200;28;20053;-63
2023/06/02 09:15:59;;;;;;;6.05;1.98;;;;;;;;;;5050325;28;20107;-63
2023/06/02 09:18:28;;;;;;;3.13;1.65;;;;;;;;;;5052596;28;20390;-62
2023/06/02 09:20:58;;;;;;;6.25;2.00;;;;;;;;;;5052223;28;20072;-63
2023/06/02 09:23:41;;;;;;;4.88;2.00;;;;;;;;;;5052059;28;20106;-62
2023/06/02 09:26:21;;;;;;;4.53;1.88;;;;;;;;;;5046914;28;20053;-63
2023/06/02 09:29:02;;;;;;;5.90;2.13;;;;;;;;;;5047639;28;20076;-62
2023/06/02 09:31:43;;;;;;;4.80;2.05;;;;;;;;;;5051851;28;20399;-62
2023/06/02 09:34:12;;;;;;;4.85;1.52;;;;;;;;;;5051226;28;20478;-64
2023/06/02 09:36:41;;;;;;;3.33;1.80;;;;;;;;;;5043231;28;20062;-62
2023/06/02 09:39:10;;;;;;;3.92;1.70;;;;;;;;;;5051563;28;20052;-62
2023/06/02 09:41:41;;;;;;;4.00;2.00;;;;;;;;;;5051575;28;20132;-64
2023/06/02 09:44:13;;;;;;;4.95;1.80;;;;;;;;;;5051521;28;20041;-63
2023/06/02 09:46:42;;;;;;;3.70;1.75;;;;;;;;;;5051181;28;20041;-63
2023/06/02 09:49:11;;;;;;;5.93;1.90;;;;;;;;;;5051940;28;20051;-63
2023/06/02 09:51:40;;;;;;;4.07;1.92;;;;;;;;;;5051543;28;20057;-62
2023/06/02 09:54:09;;;;;;;3.53;2.05;;;;;;;;;;5051910;28;20056;-62
2023/06/02 09:56:38;;;;;;;5.70;2.40;;;;;;;;;;5050701;28;20053;-63
2023/06/02 09:59:08;;;;;;;3.85;1.63;;;;;;;;;;5051400;28;20091;-64
2023/06/02 10:01:38;;;;;;;3.85;1.70;;;;;;;;;;5051332;28;20063;-62
2023/06/02 10:04:07;;;;;;;2.97;1.65;;;;;;;;;;5051573;28;20053;-62
2023/06/02 10:06:40;;;;;;;5.70;1.60;;;;;;;;;;5047998;28;20663;-64
2023/06/02 10:09:16;;;;;;;6.55;1.65;;;;;;;;;;5051129;28;20092;-64
2023/06/02 10:11:49;;;;;;;3.45;1.70;;;;;;;;;;5051145;28;20103;-63
2023/06/02 10:14:24;;;;;;;5.22;2.08;;;;;;;;;;5039032;28;20537;-63
2023/06/02 10:16:59;;;;;;;3.97;1.98;;;;;;;;;;5050547;28;20122;-63
2023/06/02 10:19:35;;;;;;;2.50;1.38;;;;;;;;;;5050729;28;20049;-66
2023/06/02 10:22:07;;;;;;;2.45;1.58;;;;;;;;;;5050897;28;20115;-65
2023/06/02 10:24:43;;;;;;;2.53;1.77;;;;;;;;;;5051267;28;20052;-63
2023/06/02 10:27:17;;;;;;;3.45;1.50;;;;;;;;;;5037407;28;20502;-63
2023/06/02 10:29:48;;;;;;;4.07;1.70;;;;;;;;;;5050719;28;20049;-65
2023/06/02 10:32:23;;;;;;;3.15;1.73;;;;;;;;;;5050586;28;20049;-66
2023/06/02 10:34:52;;;;;;;4.80;1.85;;;;;;;;;;5050328;28;20391;-64
2023/06/02 10:37:21;;;;;;;3.17;1.45;;;;;;;;;;5045816;28;20045;-64
2023/06/02 10:39:52;;;;;;;5.15;1.52;;;;;;;;;;5050705;28;20048;-65
2023/06/02 10:42:21;;;;;;;5.30;1.95;;;;;;;;;;5050486;28;20138;-64
2023/06/02 10:44:52;;;;;;;6.07;1.40;;;;;;;;;;5050216;28;20048;-63
2023/06/02 10:47:36;;;;;;;3.67;1.23;;;;;;;;;;5044397;28;20076;-63
2023/06/02 10:50:10;;;;;;;1.40;1.10;;;;;;;;;;5050601;28;20083;-65
2023/06/02 10:53:02;;;;;;;3.45;1.85;;;;;;;;;;5050260;28;20072;-65
2023/06/02 10:55:31;;;;;;;3.08;1.38;;;;;;;;;;5037346;28;20052;-63
2023/06/02 10:58:01;;;;;;;3.42;1.67;;;;;;;;;;5046153;28;20048;-63
2023/06/02 11:00:49;;;;;;;3.88;1.40;;;;;;;;;;5050583;28;20489;-63
2023/06/02 11:03:29;;;;;;;5.43;1.65;;;;;;;;;;5049760;28;20053;-64
2023/06/02 11:06:18;;;;;;;3.17;1.50;;;;;;;;;;5050165;28;20135;-62
2023/06/02 11:08:47;;;;;;;2.67;1.52;;;;;;;;;;5039321;28;20049;-65
2023/06/02 11:11:30;;;;;;;4.90;1.60;;;;;;;;;;5049779;28;20561;-63
2023/06/02 11:14:00;;;;;;;1.83;1.42;;;;;;;;;;5049781;28;20045;-63
2023/06/02 11:16:31;;;;;;;2.50;1.33;;;;;;;;;;5050080;28;20523;-63
2023/06/02 11:18:59;;;;;;;4.53;1.80;;;;;;;;;;5050181;28;20057;-64
2023/06/02 11:21:28;;;;;;;3.00;1.52;;;;;;;;;;5050240;28;20053;-63
2023/06/02 11:23:56;;;;;;;3.33;1.60;;;;;;;;;;5049923;28;20139;-64
2023/06/02 11:26:25;;;;;;;2.25;1.42;;;;;;;;;;5049693;28;20049;-64
2023/06/02 11:28:53;;;;;;;6.07;1.65;;;;;;;;;;5050331;28;20049;-62
2023/06/02 11:31:22;;;;;;;4.75;1.42;;;;;;;;;;5049766;28;20049;-65
2023/06/02 11:33:52;;;;;;;2.67;1.23;;;;;;;;;;5049748;28;20064;-64
2023/06/02 11:36:27;;;;;;;4.00;1.63;;;;;;;;;;5045481;28;20273;-63
2023/06/02 11:39:02;;;;;;;2.80;1.60;;;;;;;;;;5047298;28;20125;-63
2023/06/02 11:41:31;;;;;;;3.22;1.40;;;;;;;;;;5050382;28;20474;-63
2023/06/02 11:44:04;;;;;;;5.50;1.90;;;;;;;;;;5049717;28;20482;-63
2023/06/02 11:46:32;;;;;;;5.53;2.25;;;;;;;;;;5043904;28;20069;-64
2023/06/02 11:49:03;;;;;;;2.90;1.65;;;;;;;;;;5049701;28;20118;-63
2023/06/02 11:51:32;;;;;;;3.30;1.80;;;;;;;;;;5049926;28;20063;-63
2023/06/02 11:54:02;;;;;;;3.45;1.67;;;;;;;;;;5048859;28;20056;-63
2023/06/02 11:56:31;;;;;;;4.68;1.48;;;;;;;;;;5045127;28;20048;-65
2023/06/02 11:59:00;;;;;;;6.80;2.33;;;;;;;;;;5049373;28;20474;-64
2023/06/02 12:01:32;;;;;;;4.30;1.92;;;;;;;;;;5049676;28;20493;-62
2023/06/02 12:04:01;;;;;;;4.40;1.77;;;;;;;;;;5049329;28;20053;-62
2023/06/02 12:06:31;;;;;;;2.95;1.80;;;;;;;;;;5048427;28;20051;-63
2023/06/02 12:09:11;;;;;;;3.17;1.48;;;;;;;;;;5049620;28;20119;-64
2023/06/02 12:11:39;;;;;;;4.68;1.75;;;;;;;;;;5049537;28;20103;-63
2023/06/02 12:14:09;;;;;;;3.00;1.73;;;;;;;;;;5049727;28;20061;-63
2023/06/02 12:16:40;;;;;;;4.38;2.13;;;;;;;;;;5043700;28;20045;-64
2023/06/02 12:19:13;;;;;;;3.75;1.45;;;;;;;;;;5047046;28;20445;-64
2023/06/02 12:21:43;;;;;;;2.72;1.90;;;;;;;;;;5049690;28;20056;-65
2023/06/02 12:24:11;;;;;;;4.15;1.80;;;;;;;;;;5049454;28;20067;-63
2023/06/02 12:26:40;;;;;;;2.25;1.70;;;;;;;;;;5043667;28;20053;-63
2023/06/02 12:29:09;;;;;;;3.67;2.03;;;;;;;;;;5046061;28;20468;-63
2023/06/02 12:31:38;;;;;;;2.90;1.58;;;;;;;;;;5049137;28;20448;-64
2023/06/02 12:34:07;;;;;;;2.30;1.40;;;;;;;;;;5048929;28;20076;-65
2023/06/02 12:36:37;;;;;;;3.03;1.75;;;;;;;;;;5043910;28;20049;-63
2023/06/02 12:39:06;;;;;;;5.22;2.33;;;;;;;;;;5048194;28;20473;-63
2023/06/02 12:41:35;;;;;;;5.28;1.80;;;;;;;;;;5049765;28;20105;-65
2023/06/02 12:44:03;;;;;;;3.78;2.00;;;;;;;;;;5050244;28;20081;-66
2023/06/02 12:46:31;;;;;;;4.68;1.88;;;;;;;;;;5051910;28;20122;-65
2023/06/02 12:49:00;;;;;;;3.22;1.60;;;;;;;;;;5046473;28;20071;-63
2023/06/02 12:51:28;;;;;;;3.42;1.70;;;;;;;;;;5052811;28;20087;-63
2023/06/02 12:53:57;;;;;;;3.50;1.48;;;;;;;;;;5053075;28;20361;-63
2023/06/02 12:56:27;;;;;;;2.65;1.30;;;;;;;;;;5049923;28;20049;-64
2023/06/02 12:58:57;;;;;;;5.22;1.83;;;;;;;;;;5052511;28;20064;-64
2023/06/02 13:01:26;;;;;;;3.97;1.75;;;;;;;;;;5059513;23;20053;-63
2023/06/02 13:03:55;;;;;;;3.53;1.73;;;;;;;;;;5052266;28;20088;-65
2023/06/02 13:06:25;;;;;;;3.67;2.00;;;;;;;;;;5051808;28;20045;-64
2023/06/02 13:08:54;;;;;;;2.97;1.73;;;;;;;;;;5059288;28;20057;-64
2023/06/02 13:11:23;;;;;;;3.30;1.80;;;;;;;;;;5054495;28;20049;-64
2023/06/02 13:13:53;;;;;;;4.13;1.80;;;;;;;;;;5052487;28;20445;-63
2023/06/02 13:16:21;;;;;;;4.43;1.75;;;;;;;;;;5051395;28;20131;-63
2023/06/02 13:18:49;;;;;;;4.88;2.25;;;;;;;;;;5051647;28;20283;-63
2023/06/02 13:21:18;;;;;;;3.13;1.90;;;;;;;;;;5066262;28;20076;-65
2023/06/02 13:23:52;;;;;;;4.32;1.90;;;;;;;;;;5052097;28;20080;-64
2023/06/02 13:26:21;;;;;;;5.00;1.90;;;;;;;;;;5060741;28;20049;-63
2023/06/02 13:28:50;;;;;;;5.07;1.58;;;;;;;;;;5052260;28;20084;-63
2023/06/02 13:31:19;;;;;;;2.47;1.58;;;;;;;;;;5052075;28;20053;-64
2023/06/02 13:33:50;;;;;;;2.70;1.45;;;;;;;;;;5035457;28;20041;-63
2023/06/02 13:36:18;;;;;;;2.95;1.40;;;;;;;;;;5020751;28;20045;-64
2023/06/02 13:38:47;;;;;;;2.58;1.60;;;;;;;;;;5031693;28;20574;-63
2023/06/02 13:41:15;;;;;;;5.50;1.85;;;;;;;;;;5032520;28;20049;-64
2023/06/02 13:43:44;;;;;;;4.53;1.63;;;;;;;;;;5027168;28;20077;-63
2023/06/02 13:46:13;;;;;;;5.75;1.90;;;;;;;;;;5050207;28;20045;-63
2023/06/02 13:48:42;;;;;;;2.85;1.70;;;;;;;;;;5031714;28;20049;-63
2023/06/02 13:51:11;;;;;;;3.97;1.83;;;;;;;;;;5031743;28;20379;-64
2023/06/02 13:53:39;;;;;;;5.78;1.90;;;;;;;;;;5050093;28;20560;-63
2023/06/02 13:56:07;;;;;;;2.03;1.55;;;;;;;;;;5050859;28;20180;-63
2023/06/02 13:58:36;;;;;;;3.05;1.60;;;;;;;;;;5030766;28;20568;-64
2023/06/02 14:01:04;;;;;;;3.42;1.83;;;;;;;;;;5033971;28;20569;-64
2023/06/02 14:03:33;;;;;;;4.03;1.98;;;;;;;;;;5030174;28;20061;-62
2023/06/02 14:06:03;;;;;;;3.28;1.60;;;;;;;;;;5031158;28;20088;-64
2023/06/02 14:08:31;;;;;;;3.53;1.73;;;;;;;;;;5031300;28;20486;-63
2023/06/02 14:11:00;;;;;;;5.35;1.85;;;;;;;;;;5031086;28;20053;-64
2023/06/02 14:13:28;;;;;;;3.08;1.90;;;;;;;;;;5031066;28;20076;-62
2023/06/02 14:15:57;;;;;;;2.33;1.50;;;;;;;;;;5030619;28;20053;-63
2023/06/02 14:18:25;;;;;;;4.13;2.13;;;;;;;;;;5032334;28;20108;-62
2023/06/02 14:20:54;;;;;;;3.05;1.38;;;;;;;;;;5031230;28;20498;-64
2023/06/02 14:23:23;;;;;;;3.72;1.63;;;;;;;;;;5031094;28;20042;-63
2023/06/02 14:25:52;;;;;;;3.78;1.92;;;;;;;;;;5030414;28;20049;-63
2023/06/02 14:28:20;;;;;;;2.75;1.63;;;;;;;;;;5031213;28;20049;-63
2023/06/02 14:30:49;;;;;;;4.10;1.85;;;;;;;;;;5031235;28;20109;-64
2023/06/02 14:33:17;;;;;;;3.90;1.98;;;;;;;;;;5032980;28;20041;-63
2023/06/02 14:35:46;;;;;;;3.28;1.85;;;;;;;;;;5019476;28;20103;-63
2023/06/02 14:38:14;;;;;;;2.47;1.52;;;;;;;;;;5031282;28;20457;-64
2023/06/02 14:40:44;;;;;;;2.47;1.67;;;;;;;;;;5030618;28;20049;-63
2023/06/02 14:43:12;;;;;;;4.65;2.00;;;;;;;;;;5031362;28;20053;-63
2023/06/02 14:45:40;;;;;;;2.10;1.50;;;;;;;;;;5030326;28;20045;-63
2023/06/02 14:48:09;;;;;;;3.42;1.92;;;;;;;;;;5034594;28;20563;-64
2023/06/02 14:50:37;;;;;;;2.55;1.52;;;;;;;;;;5021499;28;20041;-64
2023/06/02 14:53:06;;;;;;;3.65;1.83;;;;;;;;;;5036924;28;20061;-64
2023/06/02 14:55:35;;;;;;;3.80;1.77;;;;;;;;;;5030431;28;20064;-63
2023/06/02 14:58:05;;;;;;;4.85;1.92;;;;;;;;;;5036976;28;20048;-63